Time;durP1;ratioP1;P1;durP2;ratioP2;P2;SDS_P1;SDS_P2;PMS_P1;PMS_P2;Temp;Humidity;BMP_temperature;BMP_pressure;BME280_temperature;BME280_humidity;BME280_pressure;Samples;Min_cycle;Max_cycle;Signal;HPM_P1;HPM_P2
2022/05/07 00:00:28;;;;;;;21.17;19.07;;;13.50;99.90;;;;;;5053067;28;20209;-68
2022/05/07 00:02:54;;;;;;;21.90;19.20;;;13.50;99.90;;;;;;5055844;28;20174;-68
2022/05/07 00:05:20;;;;;;;21.30;19.10;;;13.50;99.90;;;;;;5055280;28;20527;-67
2022/05/07 00:07:46;;;;;;;21.60;19.50;;;13.40;99.90;;;;;;5055857;28;20440;-68
2022/05/07 00:10:12;;;;;;;22.53;20.27;;;13.40;99.90;;;;;;5053806;28;20171;-68
2022/05/07 00:12:38;;;;;;;20.87;18.90;;;13.40;99.90;;;;;;5055563;28;20427;-69
2022/05/07 00:15:04;;;;;;;20.67;18.60;;;13.40;99.90;;;;;;5054495;28;20428;-68
2022/05/07 00:20:13;;;;;;;20.25;18.10;;;13.30;99.90;;;;;;5054668;28;20430;-69
2022/05/07 00:22:39;;;;;;;21.60;19.30;;;13.10;99.90;;;;;;5054989;28;20546;-68
2022/05/07 00:25:05;;;;;;;21.43;19.33;;;13.00;99.90;;;;;;5054329;28;20267;-68
2022/05/07 00:27:30;;;;;;;22.13;19.93;;;12.90;99.90;;;;;;5055025;28;20193;-68
2022/05/07 00:29:56;;;;;;;20.87;18.67;;;12.90;99.90;;;;;;5054738;28;20432;-68
2022/05/07 00:32:21;;;;;;;19.90;17.90;;;12.90;99.90;;;;;;5055026;28;20206;-68
2022/05/07 00:34:47;;;;;;;21.03;18.90;;;13.00;99.90;;;;;;5054913;28;20220;-68
2022/05/07 00:37:12;;;;;;;21.37;18.93;;;13.10;99.90;;;;;;5054827;28;20174;-68
2022/05/07 00:39:38;;;;;;;20.83;18.83;;;13.10;99.90;;;;;;5054407;28;20471;-68
2022/05/07 00:42:05;;;;;;;21.07;18.97;;;13.10;99.90;;;;;;5054701;28;20253;-68
2022/05/07 00:44:32;;;;;;;21.17;18.77;;;13.10;99.90;;;;;;5054775;28;20189;-69
2022/05/07 00:47:27;;;;;;;21.30;19.20;;;13.10;99.90;;;;;;5054750;28;21156;-68
2022/05/07 00:52:40;;;;;;;22.13;19.87;;;13.20;99.90;;;;;;5054654;28;20480;-67
2022/05/07 00:55:06;;;;;;;21.07;18.77;;;13.10;99.90;;;;;;5053224;28;20574;-67
2022/05/07 00:57:32;;;;;;;21.97;19.83;;;13.20;99.90;;;;;;5054442;28;20416;-68
2022/05/07 00:59:57;;;;;;;21.23;18.53;;;13.10;99.90;;;;;;5054230;28;20444;-68
2022/05/07 01:02:23;;;;;;;23.42;21.13;;;13.00;99.90;;;;;;5053429;28;20455;-68
2022/05/07 01:04:49;;;;;;;21.37;19.20;;;13.10;99.90;;;;;;5054392;28;20553;-69
2022/05/07 01:07:14;;;;;;;20.77;18.77;;;13.10;99.90;;;;;;5054491;28;20202;-66
2022/05/07 01:09:40;;;;;;;22.37;20.17;;;13.10;99.90;;;;;;5053214;28;20495;-68
2022/05/07 01:12:06;;;;;;;22.43;20.17;;;13.20;99.90;;;;;;5053959;28;20170;-67
2022/05/07 01:14:31;;;;;;;22.17;19.83;;;13.10;99.90;;;;;;5054278;28;20602;-67
2022/05/07 01:16:57;;;;;;;22.37;20.07;;;12.90;99.90;;;;;;5054111;28;20432;-67
2022/05/07 01:19:22;;;;;;;22.17;20.07;;;12.80;99.90;;;;;;5053821;28;20237;-68
2022/05/07 01:21:48;;;;;;;21.80;18.60;;;12.80;99.90;;;;;;5054036;28;20162;-68
2022/05/07 01:24:13;;;;;;;19.40;17.30;;;12.80;99.90;;;;;;5054187;28;20658;-68
2022/05/07 01:26:39;;;;;;;24.40;19.70;;;12.90;99.90;;;;;;5053211;28;20241;-67
2022/05/07 01:29:06;;;;;;;22.93;20.53;;;12.90;99.90;;;;;;5053893;28;20178;-67
2022/05/07 01:31:32;;;;;;;21.87;19.40;;;12.90;99.90;;;;;;5053644;28;20409;-67
2022/05/07 01:33:58;;;;;;;22.60;20.13;;;12.90;99.90;;;;;;5054083;28;20890;-67
2022/05/07 01:36:23;;;;;;;20.47;18.23;;;12.90;99.90;;;;;;5052578;28;20289;-67
2022/05/07 01:38:49;;;;;;;24.20;19.83;;;12.90;99.90;;;;;;5052378;28;20580;-68
2022/05/07 01:41:15;;;;;;;20.90;18.70;;;12.90;99.90;;;;;;5053479;28;20670;-68
2022/05/07 01:43:40;;;;;;;22.33;20.00;;;12.80;99.90;;;;;;5053817;28;20212;-68
2022/05/07 01:48:51;;;;;;;23.60;21.10;;;12.60;99.90;;;;;;5053552;28;20257;-67
2022/05/07 01:51:16;;;;;;;24.67;22.17;;;12.50;99.90;;;;;;5053214;28;20513;-69
2022/05/07 01:53:42;;;;;;;22.33;20.03;;;12.40;99.90;;;;;;5053320;28;20809;-67
2022/05/07 01:56:07;;;;;;;22.47;20.37;;;12.40;99.90;;;;;;5053113;28;20202;-67
2022/05/07 01:58:33;;;;;;;25.40;22.90;;;12.30;99.90;;;;;;5052609;28;20912;-68
2022/05/07 02:00:58;;;;;;;24.87;22.43;;;12.30;99.90;;;;;;5052910;28;20670;-68
2022/05/07 02:03:24;;;;;;;28.17;22.70;;;12.30;99.90;;;;;;5052083;28;20174;-67
2022/05/07 02:05:49;;;;;;;24.93;20.63;;;12.20;99.90;;;;;;5053022;28;20248;-68
2022/05/07 02:08:15;;;;;;;21.73;19.30;;;12.20;99.90;;;;;;5051808;28;20170;-68
2022/05/07 02:10:40;;;;;;;22.77;20.00;;;12.20;99.90;;;;;;5052123;28;20716;-66
2022/05/07 02:13:06;;;;;;;25.90;18.90;;;12.30;99.90;;;;;;5051753;28;20178;-68
2022/05/07 02:15:32;;;;;;;18.77;16.77;;;12.40;99.90;;;;;;5052775;28;20541;-67
2022/05/07 02:17:57;;;;;;;21.83;19.17;;;12.40;99.90;;;;;;5052981;28;20170;-68
2022/05/07 02:20:23;;;;;;;20.53;18.33;;;12.50;99.90;;;;;;5052482;28;20201;-67
2022/05/07 02:22:52;;;;;;;20.90;18.70;;;12.50;99.90;;;;;;5051981;28;20159;-67
2022/05/07 02:25:18;;;;;;;21.13;18.37;;;12.50;99.90;;;;;;5051938;28;20468;-68
2022/05/07 02:27:43;;;;;;;21.33;19.07;;;12.60;99.90;;;;;;5052840;28;20786;-67
2022/05/07 02:30:09;;;;;;;23.93;21.43;;;12.50;99.90;;;;;;5052408;28;20174;-67
2022/05/07 02:32:35;;;;;;;23.03;20.80;;;12.40;99.90;;;;;;5052705;28;20526;-67
2022/05/07 02:35:00;;;;;;;24.90;21.90;;;12.10;99.90;;;;;;5052848;28;20428;-68
2022/05/07 02:37:26;;;;;;;27.03;24.20;;;11.90;99.90;;;;;;5052607;28;20181;-67
2022/05/07 02:39:53;;;;;;;25.63;22.93;;;11.80;99.90;;;;;;5052100;28;20198;-68
2022/05/07 02:42:34;;;;;;;25.70;23.20;;;11.70;99.90;;;;;;5052662;28;20257;-67
2022/05/07 02:45:01;;;;;;;27.17;23.20;;;11.70;99.90;;;;;;5052499;28;20762;-70
2022/05/07 02:47:28;;;;;;;26.07;23.43;;;11.60;99.90;;;;;;5052469;28;20466;-69
2022/05/07 02:49:53;;;;;;;25.07;21.73;;;11.60;99.90;;;;;;5052128;28;20413;-69
2022/05/07 02:52:19;;;;;;;25.40;19.90;;;11.70;99.90;;;;;;5058222;28;20405;-69
2022/05/07 02:54:44;;;;;;;22.33;20.07;;;11.80;99.90;;;;;;5052547;28;20177;-69
2022/05/07 02:57:10;;;;;;;20.93;18.70;;;11.80;99.90;;;;;;5052416;28;20208;-68
2022/05/07 02:59:38;;;;;;;23.27;19.90;;;11.90;99.90;;;;;;5051902;28;20204;-69
2022/05/07 03:02:04;;;;;;;23.50;20.97;;;11.90;99.90;;;;;;5052355;28;20254;-69
2022/05/07 03:04:30;;;;;;;25.27;22.57;;;12.00;99.90;;;;;;5052162;28;20400;-69
2022/05/07 03:06:55;;;;;;;25.00;22.43;;;11.90;99.90;;;;;;5053451;28;20436;-69
2022/05/07 03:09:21;;;;;;;26.53;23.80;;;11.90;99.90;;;;;;5052372;28;20201;-69
2022/05/07 03:11:46;;;;;;;24.40;21.83;;;11.90;99.90;;;;;;5052288;28;20265;-69
2022/05/07 03:14:12;;;;;;;25.13;22.50;;;11.90;99.90;;;;;;5052236;28;20275;-69
2022/05/07 03:16:38;;;;;;;28.33;23.13;;;11.90;99.90;;;;;;5051949;28;20190;-69
2022/05/07 03:19:04;;;;;;;24.07;20.83;;;11.90;99.90;;;;;;5051659;28;20448;-68
2022/05/07 03:21:30;;;;;;;25.30;22.73;;;11.90;99.90;;;;;;5051832;28;20405;-69
2022/05/07 03:23:56;;;;;;;23.53;19.97;;;11.90;99.90;;;;;;5051853;28;20412;-69
2022/05/07 03:26:22;;;;;;;22.13;19.90;;;12.00;99.90;;;;;;5051774;28;20216;-68
2022/05/07 03:28:48;;;;;;;22.83;20.50;;;12.00;99.90;;;;;;5051938;28;20651;-68
2022/05/07 03:31:14;;;;;;;23.50;20.47;;;12.00;99.90;;;;;;5051609;28;20409;-69
2022/05/07 03:33:39;;;;;;;23.67;21.27;;;12.10;99.90;;;;;;5052298;28;20516;-69
2022/05/07 03:36:05;;;;;;;23.50;21.10;;;12.10;99.90;;;;;;5054537;28;20194;-69
2022/05/07 03:38:31;;;;;;;26.20;23.60;;;12.10;99.90;;;;;;5055403;28;20435;-69
2022/05/07 03:40:57;;;;;;;24.83;22.00;;;12.20;99.90;;;;;;5055795;28;20220;-69
2022/05/07 03:43:23;;;;;;;25.30;22.70;;;11.90;99.90;;;;;;5056202;28;20404;-69
2022/05/07 03:45:48;;;;;;;26.43;23.83;;;11.90;99.90;;;;;;5054479;28;20410;-69
2022/05/07 03:48:14;;;;;;;24.90;22.20;;;11.90;99.90;;;;;;5055808;28;20455;-69
2022/05/07 03:50:39;;;;;;;23.87;21.47;;;12.00;99.90;;;;;;5055513;28;20184;-69
2022/05/07 03:55:49;;;;;;;23.60;21.07;;;12.10;99.90;;;;;;5055449;28;20566;-68
2022/05/07 03:58:15;;;;;;;25.70;21.97;;;12.10;99.90;;;;;;5054941;28;20408;-69
2022/05/07 04:00:44;;;;;;;22.67;20.33;;;12.10;99.90;;;;;;5053885;28;20578;-69
2022/05/07 04:03:11;;;;;;;25.93;22.13;;;12.10;99.90;;;;;;5055347;28;20507;-68
2022/05/07 04:05:37;;;;;;;25.17;21.27;;;12.10;99.90;;;;;;5055489;28;20424;-68
2022/05/07 04:08:03;;;;;;;24.87;22.27;;;12.10;99.90;;;;;;5055354;28;20473;-69
2022/05/07 04:10:28;;;;;;;24.77;22.00;;;12.00;99.90;;;;;;5055079;28;20495;-69
2022/05/07 04:12:54;;;;;;;24.57;21.97;;;12.00;99.90;;;;;;5055422;28;20174;-68
2022/05/07 04:15:21;;;;;;;25.20;21.53;;;12.00;99.90;;;;;;5055177;28;20201;-69
2022/05/07 04:17:46;;;;;;;24.37;21.87;;;12.10;99.90;;;;;;5055370;28;20174;-68
2022/05/07 04:20:12;;;;;;;25.10;21.73;;;12.10;99.90;;;;;;5055392;28;20501;-68
2022/05/07 04:22:38;;;;;;;24.83;22.23;;;12.20;99.90;;;;;;5061473;28;20170;-69
2022/05/07 04:25:05;;;;;;;25.00;22.30;;;12.20;99.90;;;;;;5077265;22;20202;-72
2022/05/07 04:27:30;;;;;;;25.13;22.10;;;12.20;99.90;;;;;;5073433;28;20742;-72
2022/05/07 04:29:57;;;;;;;25.10;22.50;;;12.20;99.90;;;;;;5073924;28;20486;-72
2022/05/07 04:32:23;;;;;;;26.13;23.30;;;12.10;99.90;;;;;;5055372;28;20478;-72
2022/05/07 04:34:49;;;;;;;25.60;22.90;;;12.00;99.90;;;;;;5074214;28;20169;-72
2022/05/07 04:37:15;;;;;;;25.03;22.33;;;11.90;99.90;;;;;;5071448;28;20443;-72
2022/05/07 04:39:40;;;;;;;25.20;22.60;;;11.90;99.90;;;;;;5072406;28;20197;-72
2022/05/07 04:42:06;;;;;;;26.23;23.53;;;11.90;99.90;;;;;;5073310;28;20173;-72
2022/05/07 04:44:32;;;;;;;27.60;24.57;;;11.90;99.90;;;;;;5074396;28;20604;-72
2022/05/07 04:46:57;;;;;;;28.53;25.50;;;11.80;99.90;;;;;;5093296;28;20165;-72
2022/05/07 04:49:23;;;;;;;27.40;23.80;;;11.80;99.90;;;;;;5094601;28;20166;-71
2022/05/07 04:51:50;;;;;;;27.83;24.43;;;11.80;99.90;;;;;;5095379;28;20177;-72
2022/05/07 04:54:19;;;;;;;27.27;24.33;;;11.90;99.90;;;;;;5075260;28;20489;-72
2022/05/07 04:56:46;;;;;;;27.53;24.23;;;12.00;99.90;;;;;;5074851;28;20493;-71
2022/05/07 04:59:12;;;;;;;27.20;24.30;;;12.00;99.90;;;;;;5073202;28;20460;-72
2022/05/07 05:01:37;;;;;;;26.73;23.60;;;11.90;99.90;;;;;;5074307;28;20412;-72
2022/05/07 05:04:03;;;;;;;28.37;25.10;;;11.80;99.90;;;;;;5074686;28;20454;-72
2022/05/07 05:06:29;;;;;;;26.40;23.07;;;11.80;99.90;;;;;;5056362;28;20206;-72
2022/05/07 05:08:54;;;;;;;27.87;23.80;;;11.80;99.90;;;;;;5074260;28;20414;-72
2022/05/07 05:11:20;;;;;;;27.83;24.83;;;11.90;99.90;;;;;;5074006;28;20588;-72
2022/05/07 05:13:45;;;;;;;27.07;24.20;;;12.00;99.90;;;;;;5073885;28;20637;-72
2022/05/07 05:16:11;;;;;;;26.17;23.37;;;12.10;99.90;;;;;;5074196;28;20190;-72
2022/05/07 05:18:36;;;;;;;27.00;24.10;;;12.20;99.90;;;;;;5074422;28;20232;-72
2022/05/07 05:21:02;;;;;;;27.80;24.43;;;12.20;99.90;;;;;;5075410;28;20173;-72
2022/05/07 05:23:28;;;;;;;27.13;24.07;;;12.20;99.90;;;;;;5077327;28;20178;-72
2022/05/07 05:25:53;;;;;;;26.50;23.70;;;12.20;99.90;;;;;;5078370;28;20213;-73
2022/05/07 05:28:19;;;;;;;29.03;24.20;;;12.30;99.90;;;;;;5076642;28;20182;-73
2022/05/07 05:30:51;;;;;;;25.97;22.90;;;12.40;99.90;;;;;;5057309;28;20182;-73
2022/05/07 05:33:20;;;;;;;25.53;22.77;;;12.40;99.90;;;;;;5075424;28;20181;-73
2022/05/07 05:35:46;;;;;;;31.67;24.60;;;12.50;99.90;;;;;;5077025;28;20439;-73
2022/05/07 05:38:11;;;;;;;27.97;24.30;;;12.60;99.90;;;;;;5075251;28;20443;-72
2022/05/07 05:40:37;;;;;;;28.90;24.10;;;12.60;99.90;;;;;;5073254;28;20966;-72
2022/05/07 05:43:02;;;;;;;26.50;23.53;;;12.70;99.90;;;;;;5073791;28;20162;-72
2022/05/07 05:45:28;;;;;;;26.53;23.70;;;12.70;99.90;;;;;;5073619;28;20191;-71
2022/05/07 05:47:54;;;;;;;28.20;23.83;;;12.70;99.90;;;;;;5055873;28;20621;-72
2022/05/07 05:50:20;;;;;;;26.63;22.50;;;12.80;99.90;;;;;;5055311;28;20189;-73
2022/05/07 05:52:45;;;;;;;27.17;24.37;;;12.90;99.90;;;;;;5072687;28;20428;-73
2022/05/07 05:55:11;;;;;;;27.07;23.93;;;12.90;99.90;;;;;;5073009;28;20174;-73
2022/05/07 05:57:37;;;;;;;28.97;25.47;;;12.90;99.90;;;;;;5073070;28;20196;-72
2022/05/07 06:00:07;;;;;;;26.70;23.83;;;13.00;99.90;;;;;;5053758;28;20447;-72
2022/05/07 06:02:33;;;;;;;27.30;24.23;;;13.00;99.90;;;;;;5072605;28;20188;-73
2022/05/07 06:04:59;;;;;;;27.20;24.30;;;13.10;99.90;;;;;;5055097;28;20729;-73
2022/05/07 06:07:25;;;;;;;32.50;25.30;;;13.10;99.90;;;;;;5072777;28;20411;-73
2022/05/07 06:09:50;;;;;;;27.33;24.40;;;13.20;99.90;;;;;;5072811;28;20415;-72
2022/05/07 06:12:16;;;;;;;27.00;23.50;;;13.20;99.90;;;;;;5076916;28;20188;-72
2022/05/07 06:14:42;;;;;;;30.10;25.27;;;13.30;99.90;;;;;;5076710;28;20545;-72
2022/05/07 06:17:07;;;;;;;27.97;24.93;;;13.30;99.90;;;;;;5076395;28;20185;-72
2022/05/07 06:19:33;;;;;;;26.77;23.97;;;13.40;99.90;;;;;;5074169;28;20203;-71
2022/05/07 06:21:58;;;;;;;28.13;25.17;;;13.40;99.90;;;;;;5075470;28;20165;-72
2022/05/07 06:27:31;;;;;;;28.63;24.50;;;13.60;99.90;;;;;;5075017;28;20280;-72
2022/05/07 06:29:58;;;;;;;29.00;24.73;;;13.60;99.90;;;;;;5074073;28;20412;-72
2022/05/07 06:32:29;;;;;;;27.60;23.47;;;13.70;99.90;;;;;;5074593;28;20947;-72
2022/05/07 06:34:55;;;;;;;31.40;24.60;;;13.70;99.90;;;;;;5074356;28;20428;-72
2022/05/07 06:37:20;;;;;;;27.23;24.57;;;13.80;99.90;;;;;;5074495;28;20438;-72
2022/05/07 06:39:46;;;;;;;27.80;24.13;;;13.90;99.90;;;;;;5055065;28;20208;-73
2022/05/07 06:42:12;;;;;;;31.20;23.70;;;14.00;99.90;;;;;;5073285;28;20162;-72
2022/05/07 06:44:37;;;;;;;30.17;23.87;;;14.10;99.90;;;;;;5073701;28;20551;-72
2022/05/07 06:47:03;;;;;;;30.53;25.60;;;14.20;99.90;;;;;;5073107;28;20254;-71
2022/05/07 06:49:28;;;;;;;27.40;24.33;;;14.30;99.90;;;;;;5072202;28;20235;-72
2022/05/07 06:51:54;;;;;;;26.63;24.07;;;14.30;99.90;;;;;;5073406;28;20239;-72
2022/05/07 06:54:21;;;;;;;28.17;25.47;;;14.50;99.90;;;;;;5071900;28;20195;-72
2022/05/07 06:56:47;;;;;;;28.60;24.97;;;14.60;99.90;;;;;;5072511;28;20201;-73
2022/05/07 06:59:13;;;;;;;29.70;25.57;;;14.70;99.90;;;;;;5070294;28;20915;-71
2022/05/07 07:01:39;;;;;;;29.17;26.00;;;14.90;99.90;;;;;;5069007;28;20931;-72
2022/05/07 07:04:04;;;;;;;27.03;23.67;;;15.00;99.90;;;;;;5072639;28;20412;-72
2022/05/07 07:06:31;;;;;;;29.30;24.67;;;15.20;99.90;;;;;;5073788;28;20430;-72
2022/05/07 07:08:57;;;;;;;27.17;24.30;;;15.40;99.90;;;;;;5073949;28;20256;-72
2022/05/07 07:11:22;;;;;;;26.90;24.17;;;15.50;99.90;;;;;;5071953;28;21001;-72
2022/05/07 07:13:49;;;;;;;28.07;24.90;;;15.60;99.90;;;;;;5073822;28;20192;-72
2022/05/07 07:16:15;;;;;;;27.67;24.73;;;15.70;99.90;;;;;;5073371;28;20201;-72
2022/05/07 07:18:41;;;;;;;30.40;26.95;;;15.80;99.90;;;;;;5055617;28;21241;-72
2022/05/07 07:21:06;;;;;;;29.07;23.40;;;15.90;99.90;;;;;;5074143;28;20201;-72
2022/05/07 07:23:32;;;;;;;28.60;23.83;;;16.10;99.90;;;;;;5072730;28;20174;-72
2022/05/07 07:25:57;;;;;;;29.93;24.40;;;16.20;99.90;;;;;;5053768;28;20554;-72
2022/05/07 07:28:23;;;;;;;26.83;23.90;;;16.30;99.90;;;;;;5073164;28;20231;-72
2022/05/07 07:30:49;;;;;;;26.27;23.08;;;16.40;99.90;;;;;;5072825;28;20410;-72
2022/05/07 07:33:15;;;;;;;25.47;22.77;;;16.50;99.90;;;;;;5072847;28;20177;-73
2022/05/07 07:35:43;;;;;;;23.17;20.73;;;16.50;99.90;;;;;;5073329;28;20239;-73
2022/05/07 07:38:10;;;;;;;24.03;20.43;;;16.60;99.90;;;;;;5073166;28;20169;-72
2022/05/07 07:40:35;;;;;;;24.20;19.83;;;16.60;99.90;;;;;;5072886;28;20486;-72
2022/05/07 07:43:01;;;;;;;21.87;19.57;;;16.70;99.90;;;;;;5054771;28;20424;-72
2022/05/07 07:48:11;;;;;;;25.10;20.10;;;16.90;99.90;;;;;;5052661;28;20208;-70
2022/05/07 07:50:38;;;;;;;21.23;18.10;;;17.00;99.90;;;;;;5057917;28;20874;-72
2022/05/07 07:53:05;;;;;;;25.57;18.40;;;17.10;99.90;;;;;;5064198;28;20716;-72
2022/05/07 07:55:31;;;;;;;21.10;18.43;;;17.20;99.90;;;;;;5063019;28;20444;-71
2022/05/07 07:58:01;;;;;;;21.50;18.03;;;17.20;99.90;;;;;;5065204;28;20459;-72
2022/05/07 08:00:29;;;;;;;21.87;17.80;;;17.30;99.90;;;;;;5065938;28;20266;-70
2022/05/07 08:02:58;;;;;;;28.13;19.80;;;17.40;99.60;;;;;;5066114;28;20569;-71
2022/05/07 08:05:28;;;;;;;24.53;17.57;;;17.50;99.50;;;;;;5065904;28;21328;-71
2022/05/07 08:13:23;;;;;;;20.00;17.17;;;17.80;99.00;;;;;;5065946;28;20832;-70
2022/05/07 08:15:49;;;;;;;22.30;17.93;;;17.90;98.80;;;;;;5065986;28;20543;-71
2022/05/07 08:18:15;;;;;;;21.40;16.57;;;18.00;98.40;;;;;;5067188;28;20276;-71
2022/05/07 08:20:41;;;;;;;25.23;18.40;;;18.10;98.40;;;;;;5067787;28;20497;-70
2022/05/07 08:23:08;;;;;;;22.80;16.60;;;18.30;98.20;;;;;;5070194;28;20462;-73
2022/05/07 08:25:34;;;;;;;21.60;16.90;;;18.40;98.00;;;;;;5067781;28;20532;-70
2022/05/07 08:28:00;;;;;;;24.37;18.40;;;18.50;98.30;;;;;;5070721;28;20465;-70
2022/05/07 08:30:25;;;;;;;25.10;19.13;;;18.50;97.50;;;;;;5071819;28;20431;-71
2022/05/07 08:32:51;;;;;;;23.90;19.17;;;18.60;97.50;;;;;;5071657;28;20266;-70
2022/05/07 08:35:18;;;;;;;23.93;19.60;;;18.50;97.60;;;;;;5071123;28;20804;-71
2022/05/07 08:37:44;;;;;;;25.40;19.33;;;18.60;97.80;;;;;;5073554;28;20929;-70
2022/05/07 08:40:12;;;;;;;26.00;17.50;;;18.70;97.70;;;;;;5072656;28;20470;-70
2022/05/07 08:42:38;;;;;;;21.63;17.50;;;18.80;97.70;;;;;;5074742;28;20503;-71
2022/05/07 08:45:04;;;;;;;24.80;17.90;;;18.90;97.40;;;;;;5074366;28;20481;-70
2022/05/07 08:47:31;;;;;;;26.50;18.93;;;19.00;97.20;;;;;;5056413;28;20920;-70
2022/05/07 08:49:57;;;;;;;20.03;17.50;;;19.10;97.10;;;;;;5074191;28;20404;-71
2022/05/07 08:52:23;;;;;;;25.33;17.50;;;19.10;97.10;;;;;;5075528;28;20916;-71
2022/05/07 08:54:48;;;;;;;19.40;16.17;;;19.20;97.10;;;;;;5075303;28;20419;-71
2022/05/07 08:57:15;;;;;;;23.07;17.50;;;19.30;97.30;;;;;;5074254;28;20443;-71
2022/05/07 08:59:42;;;;;;;21.90;17.50;;;19.40;96.90;;;;;;5077339;28;20197;-72
2022/05/07 09:02:08;;;;;;;20.80;17.50;;;19.50;96.80;;;;;;5069129;28;20992;-71
2022/05/07 09:04:36;;;;;;;20.07;17.50;;;19.70;96.30;;;;;;5068120;28;20478;-71
2022/05/07 09:07:03;;;;;;;20.07;16.97;;;19.70;95.90;;;;;;5070308;28;20443;-71
2022/05/07 09:09:31;;;;;;;23.13;17.33;;;19.80;95.70;;;;;;5072537;28;20525;-71
2022/05/07 09:11:58;;;;;;;20.27;16.63;;;19.90;95.40;;;;;;5072291;28;20487;-71
2022/05/07 09:14:30;;;;;;;18.63;16.40;;;20.00;95.10;;;;;;5072491;28;20411;-71
2022/05/07 09:16:59;;;;;;;18.57;15.80;;;20.00;94.90;;;;;;5073526;28;20432;-71
2022/05/07 09:19:29;;;;;;;19.40;15.80;;;20.00;94.80;;;;;;5073411;28;20818;-71
2022/05/07 09:22:05;;;;;;;21.93;15.43;;;20.10;94.60;;;;;;5055806;28;20404;-71
2022/05/07 09:24:30;;;;;;;20.30;16.53;;;20.20;94.50;;;;;;5073710;28;20939;-71
2022/05/07 09:27:00;;;;;;;21.77;16.60;;;20.20;93.80;;;;;;5054936;28;20486;-71
2022/05/07 09:29:29;;;;;;;17.77;15.87;;;20.30;93.70;;;;;;5073198;28;20523;-71
2022/05/07 09:31:54;;;;;;;18.00;16.10;;;20.20;93.70;;;;;;5073236;28;20412;-71
2022/05/07 09:37:17;;;;;;;20.97;17.33;;;20.30;93.40;;;;;;5073889;28;20196;-71
2022/05/07 09:39:47;;;;;;;21.57;17.53;;;20.20;93.30;;;;;;5073443;28;20462;-71
2022/05/07 09:42:17;;;;;;;22.93;17.27;;;20.20;93.30;;;;;;5072941;28;20787;-71
2022/05/07 09:44:44;;;;;;;20.33;16.63;;;20.30;93.20;;;;;;5073245;28;20756;-71
2022/05/07 09:47:12;;;;;;;20.97;16.57;;;20.30;93.00;;;;;;5073144;28;20503;-71
2022/05/07 09:50:19;;;;;;;18.43;15.97;;;20.30;92.80;;;;;;5072914;28;20935;-71
2022/05/07 09:52:27;;;;;;;21.27;16.07;;;20.40;93.10;;;;;;5073134;28;20412;-71
2022/05/07 09:57:38;;;;;;;15.60;14.00;;;20.40;92.90;;;;;;5073161;28;20868;-72
2022/05/07 10:00:07;;;;;;;19.20;17.10;;;20.40;93.00;;;;;;5072265;28;20430;-71
2022/05/07 10:02:51;;;;;;;22.30;17.87;;;20.50;92.40;;;;;;5072717;28;20252;-72
2022/05/07 10:05:50;;;;;;;18.53;16.53;;;20.50;92.20;;;;;;5072529;28;20488;-72
2022/05/07 10:08:27;;;;;;;21.27;15.87;;;20.50;92.40;;;;;;5072910;28;20432;-71
2022/05/07 10:10:53;;;;;;;21.37;18.07;;;20.50;92.20;;;;;;5072629;28;20818;-72
2022/05/07 10:13:20;;;;;;;20.80;18.37;;;20.60;91.90;;;;;;5072978;28;20461;-72
2022/05/07 10:15:46;;;;;;;20.23;17.90;;;20.70;91.60;;;;;;5072877;28;20193;-72
2022/05/07 10:18:16;;;;;;;23.00;20.17;;;20.80;91.50;;;;;;5072682;28;20412;-72
2022/05/07 10:20:47;;;;;;;20.97;18.20;;;20.60;91.40;;;;;;5072374;28;20455;-72
2022/05/07 10:23:14;;;;;;;22.87;19.60;;;20.60;91.50;;;;;;5072493;28;20431;-72
2022/05/07 10:25:43;;;;;;;27.30;21.40;;;20.80;91.20;;;;;;5072294;28;20447;-73
2022/05/07 10:28:15;;;;;;;21.60;18.90;;;20.80;90.70;;;;;;5072461;28;20443;-73
2022/05/07 10:30:56;;;;;;;25.63;18.90;;;20.80;90.80;;;;;;5054016;28;20427;-73
2022/05/07 10:33:22;;;;;;;21.40;16.90;;;21.00;90.80;;;;;;5072724;28;20398;-73
2022/05/07 10:35:53;;;;;;;20.80;17.37;;;21.10;90.60;;;;;;5072771;28;20196;-72
2022/05/07 10:38:23;;;;;;;18.27;16.37;;;21.10;90.40;;;;;;5072770;28;20188;-73
2022/05/07 10:40:57;;;;;;;20.07;16.50;;;21.20;90.40;;;;;;5072576;28;20459;-72
2022/05/07 10:43:30;;;;;;;19.90;17.77;;;21.30;90.30;;;;;;5053990;28;20510;-73
2022/05/07 10:46:06;;;;;;;21.03;18.93;;;21.30;90.10;;;;;;5072486;28;20799;-71
2022/05/07 10:48:46;;;;;;;25.00;18.60;;;21.30;89.70;;;;;;5072793;28;20934;-73
2022/05/07 10:51:37;;;;;;;22.40;20.10;;;21.20;90.10;;;;;;5055184;28;20419;-73
2022/05/07 10:54:18;;;;;;;27.50;18.67;;;21.10;90.10;;;;;;5072745;28;20810;-72
2022/05/07 10:56:47;;;;;;;21.20;18.80;;;21.20;90.30;;;;;;5072823;28;20459;-74
2022/05/07 10:59:13;;;;;;;24.30;21.70;;;21.30;90.10;;;;;;5071462;28;20994;-72
2022/05/07 11:01:39;;;;;;;21.93;18.63;;;21.30;89.60;;;;;;5071888;28;21016;-73
2022/05/07 11:04:07;;;;;;;25.13;21.07;;;21.30;90.10;;;;;;5071794;28;20408;-73
2022/05/07 11:06:39;;;;;;;24.50;21.57;;;21.30;90.30;;;;;;5071818;28;20563;-72
2022/05/07 11:09:05;;;;;;;23.73;21.20;;;21.40;90.30;;;;;;5071597;28;20446;-73
2022/05/07 11:11:40;;;;;;;26.00;23.47;;;21.40;90.40;;;;;;5071504;28;20816;-73
2022/05/07 11:14:06;;;;;;;26.63;23.73;;;21.30;90.40;;;;;;5071888;28;20252;-73
2022/05/07 11:16:31;;;;;;;28.63;22.67;;;21.00;90.50;;;;;;5071749;28;20518;-72
2022/05/07 11:18:57;;;;;;;24.07;21.57;;;20.80;91.10;;;;;;5071734;28;20253;-72
2022/05/07 11:21:24;;;;;;;24.00;21.47;;;20.80;91.20;;;;;;5071420;28;20663;-73
2022/05/07 11:23:58;;;;;;;22.60;19.50;;;20.80;90.50;;;;;;5071956;28;20169;-73
2022/05/07 11:26:24;;;;;;;20.50;18.30;;;20.70;90.60;;;;;;5071631;28;20443;-72
2022/05/07 11:28:51;;;;;;;25.30;21.63;;;20.70;91.00;;;;;;5071781;28;20408;-73
2022/05/07 11:31:32;;;;;;;24.07;21.40;;;20.70;90.80;;;;;;5071614;28;20399;-73
2022/05/07 11:34:10;;;;;;;22.80;20.23;;;20.70;90.70;;;;;;5071960;28;20805;-73
2022/05/07 11:36:36;;;;;;;23.80;19.23;;;20.80;90.60;;;;;;5071889;28;20412;-71
2022/05/07 11:39:07;;;;;;;25.33;18.17;;;20.80;90.10;;;;;;5071449;28;20404;-72
2022/05/07 11:41:34;;;;;;;22.10;19.70;;;20.90;90.00;;;;;;5071483;28;20408;-73
2022/05/07 11:46:52;;;;;;;20.93;18.73;;;21.00;89.90;;;;;;5072027;28;20435;-73
2022/05/07 11:49:28;;;;;;;21.40;18.03;;;21.00;89.60;;;;;;5071479;28;20784;-73
2022/05/07 11:52:07;;;;;;;19.63;17.50;;;21.00;89.10;;;;;;5071677;28;20418;-73
2022/05/07 11:54:33;;;;;;;23.10;18.10;;;21.20;89.60;;;;;;5054002;28;20423;-73
2022/05/07 11:56:59;;;;;;;25.57;18.90;;;21.30;88.60;;;;;;5075292;28;20909;-73
2022/05/07 11:59:25;;;;;;;19.83;17.73;;;21.30;88.50;;;;;;5075199;28;20664;-71
2022/05/07 12:01:50;;;;;;;19.03;16.90;;;21.30;87.20;;;;;;5075461;28;20499;-72
2022/05/07 12:04:16;;;;;;;17.27;15.57;;;21.40;87.30;;;;;;5075277;28;20815;-73
2022/05/07 12:06:52;;;;;;;16.07;14.30;;;21.50;86.60;;;;;;5075331;28;20190;-72
2022/05/07 12:09:17;;;;;;;18.20;16.37;;;21.60;86.50;;;;;;5074986;28;20177;-74
2022/05/07 12:11:43;;;;;;;18.83;16.90;;;21.50;86.20;;;;;;5075238;28;20828;-73
2022/05/07 12:14:09;;;;;;;17.57;15.23;;;21.50;86.40;;;;;;5075255;28;20692;-73
2022/05/07 12:19:30;;;;;;;16.20;14.47;;;21.60;85.70;;;;;;5074964;28;20227;-73
2022/05/07 12:30:09;;;;;;;13.80;12.17;;;21.80;83.80;;;;;;5075059;28;20402;-73
2022/05/07 12:32:34;;;;;;;13.60;12.20;;;21.90;83.20;;;;;;5074837;28;20478;-73
2022/05/07 12:35:00;;;;;;;14.20;12.80;;;22.00;82.80;;;;;;5074766;28;20431;-73
2022/05/07 12:37:25;;;;;;;16.20;14.50;;;22.10;83.00;;;;;;5074711;28;20188;-73
2022/05/07 12:39:51;;;;;;;14.30;12.80;;;22.10;82.30;;;;;;5074307;28;20700;-73
2022/05/07 12:42:16;;;;;;;14.30;12.80;;;22.20;82.50;;;;;;5074751;28;20170;-73
2022/05/07 12:44:43;;;;;;;19.07;13.33;;;22.30;82.00;;;;;;5074700;28;20177;-73
2022/05/07 12:47:09;;;;;;;16.10;14.40;;;22.30;81.70;;;;;;5074549;28;20204;-74
2022/05/07 12:49:35;;;;;;;14.07;12.67;;;22.40;81.20;;;;;;5074286;28;20453;-72
2022/05/07 12:52:03;;;;;;;14.17;12.77;;;22.60;81.50;;;;;;5074494;28;20404;-72
2022/05/07 12:54:29;;;;;;;14.33;12.90;;;22.60;80.20;;;;;;5074398;28;20180;-72
2022/05/07 12:56:55;;;;;;;12.57;11.17;;;22.60;79.50;;;;;;5074501;28;20424;-73
2022/05/07 12:59:20;;;;;;;11.00;10.00;;;22.70;79.40;;;;;;5073917;28;20858;-73
2022/05/07 13:01:46;;;;;;;13.23;11.27;;;22.90;79.50;;;;;;5074547;28;20165;-73
2022/05/07 13:04:12;;;;;;;13.07;11.80;;;23.00;77.80;;;;;;5074404;28;20170;-72
2022/05/07 13:06:37;;;;;;;12.77;10.23;;;23.10;77.80;;;;;;5073704;28;20947;-72
2022/05/07 13:09:03;;;;;;;15.67;11.17;;;23.00;76.90;;;;;;5074108;28;20173;-72